Time;durP1;ratioP1;P1;durP2;ratioP2;P2;SDS_P1;SDS_P2;PMS_P1;PMS_P2;Temp;Humidity;BMP_temperature;BMP_pressure;BME280_temperature;BME280_humidity;BME280_pressure;Samples;Min_cycle;Max_cycle;Signal;HPM_P1;HPM_P2
2023/08/27 00:00:04;;;;;;;4.80;3.10;;;;;;;19.29;97.38;96380.95;108806;1276;23295;-84
2023/08/27 00:02:35;;;;;;;4.00;2.70;;;;;;;19.38;96.44;96374.59;108841;1276;22622;-85
2023/08/27 00:05:06;;;;;;;3.40;2.80;;;;;;;19.43;95.51;96381.59;108540;1276;22523;-85
2023/08/27 00:07:35;;;;;;;2.20;2.00;;;;;;;19.46;94.71;96377.61;108492;1276;22539;-85
2023/08/27 00:10:04;;;;;;;3.20;2.20;;;;;;;19.49;93.95;96369.31;108475;1272;22667;-86
2023/08/27 00:12:32;;;;;;;2.70;2.10;;;;;;;19.51;93.42;96384.56;108535;1276;22554;-85
2023/08/27 00:15:01;;;;;;;3.20;2.50;;;;;;;19.50;92.88;96406.97;108508;1276;22494;-85
2023/08/27 00:17:30;;;;;;;3.10;2.50;;;;;;;19.47;92.66;96397.75;108499;1276;24049;-85
2023/08/27 00:19:58;;;;;;;4.00;2.10;;;;;;;19.46;92.45;96337.89;108455;1276;24524;-85
2023/08/27 00:22:27;;;;;;;3.20;2.50;;;;;;;19.47;92.40;96302.95;108501;1276;22529;-85
2023/08/27 00:24:56;;;;;;;4.60;2.30;;;;;;;19.49;92.14;96300.23;108526;1276;22531;-85
2023/08/27 00:27:24;;;;;;;4.10;2.50;;;;;;;19.48;92.08;96345.63;108495;1276;22940;-85
2023/08/27 00:29:58;;;;;;;4.00;3.20;;;;;;;19.48;92.17;96362.75;108516;1276;25659;-87
2023/08/27 00:32:27;;;;;;;4.00;3.60;;;;;;;19.38;92.50;96306.84;108546;1276;26570;-85
2023/08/27 00:34:55;;;;;;;6.30;3.00;;;;;;;19.35;93.11;96286.05;108432;1276;23235;-85
2023/08/27 00:37:24;;;;;;;3.90;3.10;;;;;;;19.36;93.61;96288.59;108540;1276;22533;-85
2023/08/27 00:39:53;;;;;;;4.50;3.10;;;;;;;19.36;93.90;96273.77;108505;1276;24938;-85
2023/08/27 00:42:21;;;;;;;4.90;3.10;;;;;;;19.37;93.94;96261.50;108471;1273;22564;-84
2023/08/27 00:44:49;;;;;;;3.40;3.10;;;;;;;19.36;93.72;96257.40;108518;1258;24247;-85
2023/08/27 00:47:18;;;;;;;4.10;3.10;;;;;;;19.35;94.02;96266.69;108497;1271;22540;-85
2023/08/27 00:49:46;;;;;;;3.50;2.80;;;;;;;19.34;94.01;96281.16;108507;1276;22646;-85
2023/08/27 00:52:20;;;;;;;4.90;3.50;;;;;;;19.32;94.00;96301.06;108534;1276;22649;-85
2023/08/27 00:54:51;;;;;;;5.10;3.40;;;;;;;19.25;94.04;96313.92;108436;1276;22530;-84
2023/08/27 00:57:20;;;;;;;4.40;3.00;;;;;;;19.18;94.09;96332.77;108465;1276;22530;-85
2023/08/27 00:59:48;;;;;;;3.60;3.10;;;;;;;19.11;94.43;96375.77;108475;1276;26529;-85
2023/08/27 01:02:17;;;;;;;5.30;3.50;;;;;;;19.00;94.07;96451.29;108482;1270;22539;-85
2023/08/27 01:04:46;;;;;;;4.90;4.10;;;;;;;18.82;94.80;96462.10;108489;1274;25247;-82
2023/08/27 01:07:21;;;;;;;6.00;3.40;;;;;;;18.76;96.88;96445.09;108472;1276;22532;-83
2023/08/27 01:17:16;;;;;;;5.20;3.90;;;;;;;18.50;100.00;96437.14;108357;1276;22567;-84
2023/08/27 01:19:45;;;;;;;5.30;4.00;;;;;;;18.50;100.00;96450.79;108470;1273;22617;-84
2023/08/27 01:22:13;;;;;;;5.70;4.60;;;;;;;18.48;100.00;96395.52;108467;1276;22571;-85
2023/08/27 01:24:41;;;;;;;4.20;3.70;;;;;;;18.44;100.00;96354.11;108505;1274;23101;-85
2023/08/27 01:27:16;;;;;;;4.30;3.80;;;;;;;18.42;100.00;96335.34;108489;1273;22528;-85
2023/08/27 01:29:52;;;;;;;4.50;4.00;;;;;;;18.43;100.00;96329.39;108488;1276;22528;-85
2023/08/27 01:32:28;;;;;;;4.80;4.30;;;;;;;18.48;100.00;96323.64;108553;1276;22542;-84
2023/08/27 01:34:59;;;;;;;5.80;4.10;;;;;;;18.54;100.00;96322.97;108525;1276;22534;-85
2023/08/27 01:37:27;;;;;;;5.00;4.40;;;;;;;18.59;100.00;96321.75;108483;1270;23289;-85
2023/08/27 01:39:59;;;;;;;6.40;4.50;;;;;;;18.61;100.00;96306.02;108479;1276;24156;-85
2023/08/27 01:42:29;;;;;;;5.40;4.50;;;;;;;18.62;100.00;96305.23;108466;1273;23174;-85
2023/08/27 01:44:57;;;;;;;4.70;4.30;;;;;;;18.57;100.00;96311.11;108454;1276;22546;-85
2023/08/27 01:47:26;;;;;;;6.20;4.80;;;;;;;18.50;100.00;96315.05;108479;1276;24206;-84
2023/08/27 01:49:54;;;;;;;4.90;4.40;;;;;;;18.48;100.00;96292.52;108453;1276;25363;-84
2023/08/27 01:52:22;;;;;;;4.60;4.20;;;;;;;18.51;100.00;96255.49;108477;1276;22740;-85
2023/08/27 01:54:50;;;;;;;5.90;5.00;;;;;;;18.58;100.00;96238.20;108497;1276;22551;-85
2023/08/27 01:57:18;;;;;;;5.20;4.50;;;;;;;18.64;100.00;96207.03;108472;1273;22530;-84
2023/08/27 01:59:47;;;;;;;4.80;4.10;;;;;;;18.69;100.00;96198.96;108463;1276;25314;-84
2023/08/27 02:02:15;;;;;;;5.10;4.60;;;;;;;18.72;100.00;96226.96;108451;1276;22533;-84
2023/08/27 02:04:43;;;;;;;5.00;4.10;;;;;;;18.71;100.00;96270.68;108481;1276;22539;-84
2023/08/27 02:07:12;;;;;;;7.50;4.90;;;;;;;18.62;100.00;96268.27;108480;1276;24361;-84
2023/08/27 02:09:40;;;;;;;6.20;5.10;;;;;;;18.61;100.00;96262.77;108425;1276;25268;-84
2023/08/27 02:12:09;;;;;;;6.30;4.80;;;;;;;18.62;100.00;96243.54;108473;1271;22549;-84
2023/08/27 02:14:39;;;;;;;5.40;4.50;;;;;;;18.60;100.00;96238.66;108461;1273;22523;-84
2023/08/27 02:17:08;;;;;;;6.30;4.60;;;;;;;18.59;100.00;96250.11;108483;1276;23367;-84
2023/08/27 02:19:36;;;;;;;5.20;4.20;;;;;;;18.58;100.00;96228.29;108458;1276;22521;-84
2023/08/27 02:22:04;;;;;;;5.60;4.20;;;;;;;18.64;100.00;96204.57;108442;1276;24225;-84
2023/08/27 02:24:32;;;;;;;4.20;3.60;;;;;;;18.72;100.00;96215.23;108445;1272;22544;-84
2023/08/27 02:27:00;;;;;;;5.50;4.60;;;;;;;18.76;100.00;96221.51;108455;1276;22550;-85
2023/08/27 02:29:28;;;;;;;5.10;4.50;;;;;;;18.81;100.00;96222.00;108426;1276;22549;-84
2023/08/27 02:31:57;;;;;;;5.10;4.60;;;;;;;18.84;100.00;96211.14;108455;1270;25458;-85
2023/08/27 02:34:25;;;;;;;4.80;4.30;;;;;;;18.86;100.00;96228.52;108451;1276;24249;-84
2023/08/27 02:36:53;;;;;;;7.30;4.90;;;;;;;18.83;100.00;96220.22;108441;1276;22560;-85
2023/08/27 02:39:21;;;;;;;6.40;4.80;;;;;;;18.81;100.00;96218.40;108456;1270;22541;-85
2023/08/27 02:41:49;;;;;;;6.80;4.90;;;;;;;18.82;100.00;96214.36;108464;1276;22525;-85
2023/08/27 02:44:17;;;;;;;5.90;4.70;;;;;;;18.83;100.00;96223.15;108479;1276;22552;-85
2023/08/27 02:46:46;;;;;;;5.70;4.60;;;;;;;18.84;100.00;96231.61;108448;1276;22641;-85
2023/08/27 02:49:14;;;;;;;7.50;5.10;;;;;;;18.82;100.00;96227.19;108438;1276;24108;-85
2023/08/27 02:51:42;;;;;;;5.90;4.70;;;;;;;18.79;100.00;96227.73;108810;1276;22534;-85
2023/08/27 02:54:10;;;;;;;5.00;4.40;;;;;;;18.80;100.00;96170.67;108476;1276;22567;-85
2023/08/27 02:56:39;;;;;;;5.40;4.90;;;;;;;18.82;100.00;96175.91;108445;1276;22941;-85
2023/08/27 02:59:07;;;;;;;5.30;4.80;;;;;;;18.80;100.00;96168.75;108395;1270;23407;-85
2023/08/27 03:01:35;;;;;;;5.00;4.50;;;;;;;18.76;100.00;96139.70;108409;1276;22592;-85
2023/08/27 03:04:03;;;;;;;5.10;4.60;;;;;;;18.75;100.00;96140.08;108459;1276;25411;-84
2023/08/27 03:06:32;;;;;;;6.30;4.70;;;;;;;18.74;100.00;96155.55;108427;1273;22531;-84
2023/08/27 03:09:00;;;;;;;5.00;4.50;;;;;;;18.70;100.00;96113.30;108407;1276;24185;-84
2023/08/27 03:11:28;;;;;;;5.40;4.60;;;;;;;18.71;100.00;96113.48;108466;1270;22620;-85
2023/08/27 03:13:56;;;;;;;6.80;5.10;;;;;;;18.70;100.00;96091.44;108397;1270;23029;-85
2023/08/27 03:16:24;;;;;;;6.70;4.90;;;;;;;18.70;100.00;96094.34;108459;1267;23189;-85
2023/08/27 03:18:52;;;;;;;4.90;4.40;;;;;;;18.70;100.00;96098.86;108450;1276;22561;-85
2023/08/27 03:21:21;;;;;;;6.00;4.90;;;;;;;18.70;100.00;96100.10;108420;1271;23316;-84
2023/08/27 03:23:49;;;;;;;8.70;5.00;;;;;;;18.74;100.00;96100.08;108443;1276;23475;-85
2023/08/27 03:26:17;;;;;;;4.90;4.20;;;;;;;18.78;100.00;96104.17;108419;1276;22556;-85
2023/08/27 03:28:46;;;;;;;6.90;4.40;;;;;;;18.81;100.00;96100.93;108385;1276;32669;-85
2023/08/27 03:31:14;;;;;;;4.90;4.40;;;;;;;18.83;100.00;96093.17;108423;1276;22539;-85
2023/08/27 03:33:42;;;;;;;4.80;4.30;;;;;;;18.88;100.00;96088.16;108449;1276;25314;-85
2023/08/27 03:36:10;;;;;;;7.40;4.80;;;;;;;18.93;100.00;96075.09;108429;1276;22582;-85
2023/08/27 03:38:38;;;;;;;5.00;4.10;;;;;;;18.96;100.00;96065.25;108405;1270;23503;-85
2023/08/27 03:41:07;;;;;;;5.00;4.20;;;;;;;18.99;100.00;96057.05;108447;1276;22584;-85
2023/08/27 03:43:35;;;;;;;4.20;3.80;;;;;;;19.03;100.00;96054.98;108449;1273;22536;-85
2023/08/27 03:46:03;;;;;;;5.40;4.10;;;;;;;19.07;100.00;96061.45;108428;1272;22640;-86
2023/08/27 03:48:31;;;;;;;5.70;4.30;;;;;;;19.09;100.00;96061.59;108424;1276;24295;-85
2023/08/27 03:50:59;;;;;;;5.40;4.10;;;;;;;19.09;100.00;96062.20;108460;1273;26469;-85
2023/08/27 03:53:27;;;;;;;5.50;4.10;;;;;;;19.11;100.00;96056.65;108459;1270;22530;-85
2023/08/27 03:55:56;;;;;;;4.90;4.20;;;;;;;19.14;100.00;96058.88;108461;1270;25355;-86
2023/08/27 03:58:24;;;;;;;4.50;4.00;;;;;;;19.15;100.00;96055.83;108414;1276;22549;-85
2023/08/27 04:00:52;;;;;;;6.50;4.40;;;;;;;19.21;100.00;96061.05;108444;1275;22538;-86
2023/08/27 04:03:20;;;;;;;5.40;4.60;;;;;;;19.26;100.00;96058.33;108445;1273;22582;-85
2023/08/27 04:05:49;;;;;;;5.90;4.60;;;;;;;19.32;100.00;96062.31;108428;1268;22667;-86
2023/08/27 04:08:17;;;;;;;5.50;4.60;;;;;;;19.36;100.00;96060.41;108386;1276;65510;-86
2023/08/27 04:10:49;;;;;;;5.70;4.40;;;;;;;19.39;99.94;96061.24;108751;1274;22544;-86
2023/08/27 04:13:18;;;;;;;6.20;4.90;;;;;;;19.41;99.76;96064.42;108474;1276;25300;-86
2023/08/27 04:15:57;;;;;;;5.30;4.70;;;;;;;19.43;99.50;96067.58;108396;1272;22653;-86
2023/08/27 04:18:25;;;;;;;5.00;4.60;;;;;;;19.46;99.26;96076.64;108420;1270;22488;-86
2023/08/27 04:20:53;;;;;;;5.50;4.50;;;;;;;19.45;99.26;96078.23;108462;1276;22545;-85
2023/08/27 04:23:21;;;;;;;6.10;4.50;;;;;;;19.38;99.33;96086.48;108440;1269;22561;-85
2023/08/27 04:25:49;;;;;;;4.90;4.50;;;;;;;19.33;99.55;96089.08;108442;1276;22563;-86
2023/08/27 04:28:17;;;;;;;6.20;4.40;;;;;;;19.29;99.51;96093.35;108431;1273;23516;-86
2023/08/27 04:30:47;;;;;;;7.00;4.60;;;;;;;19.26;99.63;96093.42;108415;1276;25364;-86
2023/08/27 04:33:16;;;;;;;5.50;4.70;;;;;;;19.24;99.70;96093.45;108428;1276;22529;-85
2023/08/27 04:35:47;;;;;;;5.90;5.00;;;;;;;19.17;99.74;96094.80;108478;1256;25441;-85
2023/08/27 04:38:16;;;;;;;5.70;5.10;;;;;;;19.12;99.89;96101.89;108757;1275;25434;-86
2023/08/27 04:40:49;;;;;;;5.70;5.10;;;;;;;19.09;99.92;96107.73;108405;1269;22565;-86
2023/08/27 04:43:17;;;;;;;5.60;4.50;;;;;;;19.11;100.00;96106.77;108792;1276;22583;-85
2023/08/27 04:45:46;;;;;;;5.20;4.70;;;;;;;19.12;100.00;96108.25;108765;1269;22546;-86
2023/08/27 04:48:15;;;;;;;7.10;5.50;;;;;;;19.10;100.00;96100.54;108419;1268;23027;-85
2023/08/27 04:50:46;;;;;;;5.90;5.30;;;;;;;19.08;100.00;96104.95;108419;1276;22566;-85
2023/08/27 04:53:15;;;;;;;5.90;5.30;;;;;;;19.10;100.00;96102.77;108465;1276;22542;-86
2023/08/27 04:55:43;;;;;;;6.70;5.80;;;;;;;19.15;100.00;96100.82;108442;1276;22554;-86
2023/08/27 04:58:13;;;;;;;8.80;6.00;;;;;;;19.17;100.00;96099.27;108417;1276;22610;-86
2023/08/27 05:00:42;;;;;;;7.30;5.60;;;;;;;19.18;100.00;96100.83;108426;1276;22554;-86
2023/08/27 05:03:11;;;;;;;6.00;5.40;;;;;;;19.21;100.00;96101.66;108443;1276;25260;-86
2023/08/27 05:05:40;;;;;;;6.90;5.20;;;;;;;19.26;100.00;96099.94;108433;1270;22551;-86
2023/08/27 05:08:09;;;;;;;6.30;5.10;;;;;;;19.32;100.00;96102.57;108399;1270;25407;-85
2023/08/27 05:10:37;;;;;;;6.50;5.50;;;;;;;19.48;100.00;96102.04;108465;1273;25411;-85
2023/08/27 05:13:05;;;;;;;5.50;4.70;;;;;;;19.72;100.00;96101.16;108443;1276;22530;-85
2023/08/27 05:15:33;;;;;;;6.40;5.10;;;;;;;19.94;100.00;96103.13;108398;1276;25377;-85
2023/08/27 05:18:02;;;;;;;7.80;6.00;;;;;;;20.15;100.00;96107.97;108396;1270;24955;-85
2023/08/27 05:20:30;;;;;;;5.70;5.20;;;;;;;20.33;100.00;96112.33;108553;1269;22529;-76
2023/08/27 05:22:58;;;;;;;6.10;5.20;;;;;;;20.45;100.00;96112.17;108579;1276;25344;-77
2023/08/27 05:25:26;;;;;;;5.80;5.00;;;;;;;20.63;100.00;96116.36;108512;1276;25263;-77
2023/08/27 05:27:55;;;;;;;6.20;4.80;;;;;;;20.92;100.00;96119.38;108509;1270;22542;-75
2023/08/27 05:30:24;;;;;;;5.40;4.40;;;;;;;21.26;100.00;96121.79;108372;1268;22542;-76
2023/08/27 05:32:53;;;;;;;6.00;4.70;;;;;;;21.57;99.64;96126.48;108448;1269;25264;-76
2023/08/27 05:35:22;;;;;;;6.50;4.50;;;;;;;21.91;99.13;96124.33;108405;1269;25298;-75
2023/08/27 05:37:51;;;;;;;5.50;4.00;;;;;;;22.28;98.94;96126.33;108468;1270;22580;-75
2023/08/27 05:40:20;;;;;;;5.90;5.00;;;;;;;22.66;98.50;96123.81;108406;1271;22531;-76
2023/08/27 05:42:48;;;;;;;6.90;4.50;;;;;;;22.98;97.90;96122.36;108431;1272;22544;-75
2023/08/27 05:45:17;;;;;;;5.40;3.80;;;;;;;23.25;97.06;96124.87;108436;1276;22544;-75
2023/08/27 05:47:46;;;;;;;4.90;3.80;;;;;;;23.46;96.11;96124.99;108365;1269;22595;-75
2023/08/27 05:50:14;;;;;;;4.70;3.60;;;;;;;23.72;95.67;96124.53;108405;1276;22534;-75
2023/08/27 05:52:43;;;;;;;4.40;3.90;;;;;;;23.69;93.33;96124.05;108445;1276;24222;-75
2023/08/27 05:55:12;;;;;;;4.90;3.60;;;;;;;23.53;92.67;96116.48;108399;1276;22530;-75
2023/08/27 05:57:40;;;;;;;4.00;3.30;;;;;;;23.55;92.41;96116.27;108440;1276;22649;-76
2023/08/27 06:00:10;;;;;;;3.80;3.40;;;;;;;23.62;91.95;96107.52;108425;1262;22538;-75
2023/08/27 06:02:39;;;;;;;5.10;3.80;;;;;;;23.64;91.26;96102.50;108452;1276;22536;-76
2023/08/27 06:05:11;;;;;;;6.10;3.80;;;;;;;23.69;91.36;96098.38;108437;1276;24721;-75
2023/08/27 06:07:39;;;;;;;5.60;3.70;;;;;;;23.79;90.67;96096.59;108452;1271;22712;-75
2023/08/27 06:10:10;;;;;;;5.10;3.80;;;;;;;23.75;89.78;96097.10;108388;1276;24225;-75
2023/08/27 06:12:38;;;;;;;6.00;4.00;;;;;;;23.66;89.39;96098.14;108484;1276;22775;-75
2023/08/27 06:15:08;;;;;;;4.60;4.00;;;;;;;23.72;89.26;96097.24;108374;1276;22542;-75
2023/08/27 06:17:37;;;;;;;5.10;3.60;;;;;;;23.79;89.23;96096.29;108532;1276;24225;-75
2023/08/27 06:20:09;;;;;;;4.10;3.60;;;;;;;23.83;88.62;96099.58;108398;1273;25247;-75
2023/08/27 06:22:38;;;;;;;4.00;3.40;;;;;;;23.95;88.44;96091.22;108387;1269;22570;-75
2023/08/27 06:25:08;;;;;;;7.00;4.10;;;;;;;23.89;87.26;96094.65;108400;1273;22527;-75
2023/08/27 06:27:36;;;;;;;4.30;3.90;;;;;;;23.79;86.96;96087.16;108446;1270;22580;-75
2023/08/27 06:30:08;;;;;;;4.50;3.90;;;;;;;23.67;86.62;96088.17;108409;1276;22685;-75
2023/08/27 06:32:37;;;;;;;5.10;4.60;;;;;;;23.69;86.97;96093.58;108415;1269;22538;-75
2023/08/27 06:35:09;;;;;;;5.90;4.40;;;;;;;23.86;87.03;96095.10;108430;1269;22619;-75
2023/08/27 06:37:40;;;;;;;4.70;3.90;;;;;;;23.94;86.98;96094.70;108442;1276;25489;-75
2023/08/27 06:40:12;;;;;;;4.70;4.20;;;;;;;23.80;86.13;96102.32;108453;1273;22524;-75
2023/08/27 06:42:42;;;;;;;4.80;4.10;;;;;;;23.67;86.72;96106.35;108522;1271;22529;-75
2023/08/27 06:45:13;;;;;;;5.30;4.00;;;;;;;23.63;86.75;96103.66;108452;1276;25981;-75
2023/08/27 06:47:41;;;;;;;4.60;4.20;;;;;;;23.32;85.56;96100.66;108457;1276;22537;-75
2023/08/27 06:50:10;;;;;;;5.30;4.60;;;;;;;22.98;85.87;96092.00;108426;1273;22574;-75
2023/08/27 06:52:39;;;;;;;5.20;4.60;;;;;;;22.75;86.61;96094.66;108468;1253;22555;-82
2023/08/27 06:55:10;;;;;;;5.80;4.80;;;;;;;22.62;87.11;96100.69;108472;1270;26403;-81
2023/08/27 06:57:38;;;;;;;5.60;4.90;;;;;;;22.51;87.21;96099.01;108525;1269;25292;-81
2023/08/27 07:00:11;;;;;;;6.00;5.40;;;;;;;22.41;87.83;96096.20;108540;1276;22539;-81
2023/08/27 07:02:40;;;;;;;6.20;4.90;;;;;;;22.32;87.97;96103.87;108708;1276;24208;-81
2023/08/27 07:05:09;;;;;;;7.40;5.30;;;;;;;22.22;88.32;96102.88;108604;1276;22554;-82
2023/08/27 07:07:38;;;;;;;6.20;4.70;;;;;;;22.23;89.16;96103.52;108643;1271;23403;-81
2023/08/27 07:10:08;;;;;;;6.10;4.80;;;;;;;22.33;89.70;96099.25;108597;1269;22526;-81
2023/08/27 07:12:37;;;;;;;5.80;5.20;;;;;;;22.52;90.36;96100.18;108696;1273;22475;-81
2023/08/27 07:15:07;;;;;;;9.90;5.20;;;;;;;22.75;90.53;96102.92;108661;1272;22587;-81
2023/08/27 07:17:38;;;;;;;6.20;4.80;;;;;;;22.86;89.69;96101.84;108708;1271;22520;-81
2023/08/27 07:20:11;;;;;;;8.10;4.80;;;;;;;22.76;88.51;96103.92;108639;1269;22541;-81
2023/08/27 07:22:40;;;;;;;5.30;4.80;;;;;;;22.89;89.39;96110.20;108661;1272;26023;-81
2023/08/27 07:25:10;;;;;;;5.20;4.70;;;;;;;23.19;88.99;96113.30;108662;1269;22527;-81
2023/08/27 07:27:38;;;;;;;5.80;4.90;;;;;;;23.24;88.37;96117.06;108438;1276;221825;-81
2023/08/27 07:30:08;;;;;;;5.10;4.00;;;;;;;23.25;87.95;96114.69;108573;1270;24431;-80
2023/08/27 07:32:39;;;;;;;6.40;5.20;;;;;;;23.22;87.29;96115.64;108614;1270;22664;-81
2023/08/27 07:35:08;;;;;;;5.20;4.70;;;;;;;23.26;87.83;96115.77;108617;1269;22551;-81
2023/08/27 07:37:37;;;;;;;6.80;5.30;;;;;;;23.51;87.39;96114.98;108647;1271;26000;-81
2023/08/27 07:40:10;;;;;;;5.50;5.00;;;;;;;23.69;87.23;96115.16;108591;1270;25446;-81
2023/08/27 07:42:39;;;;;;;5.00;4.50;;;;;;;23.98;87.62;96110.48;108617;1268;22761;-81
2023/08/27 07:45:08;;;;;;;;;;;;;;;24.18;86.19;96108.83;108691;1276;24324;-81
2023/08/27 07:47:36;;;;;;;6.20;4.90;;;;;;;24.16;84.72;96111.77;108642;1276;24249;-81
2023/08/27 07:50:07;;;;;;;5.50;4.50;;;;;;;24.16;84.23;96101.85;108580;1276;25282;-80
2023/08/27 07:52:36;;;;;;;6.40;4.90;;;;;;;24.14;83.88;96095.73;108600;1271;22531;-81
2023/08/27 07:55:06;;;;;;;5.30;4.80;;;;;;;24.15;84.08;96094.42;108621;1276;22535;-80
2023/08/27 07:57:34;;;;;;;6.80;4.50;;;;;;;24.11;83.61;96093.48;108611;1276;25080;-81
2023/08/27 08:00:03;;;;;;;5.50;4.90;;;;;;;24.18;84.06;96092.59;108606;1276;22530;-80
2023/08/27 08:02:31;;;;;;;5.20;4.70;;;;;;;24.34;83.96;96097.27;108592;1276;22574;-81
2023/08/27 08:05:01;;;;;;;5.90;4.90;;;;;;;24.13;82.89;96094.34;108564;1269;24236;-81
2023/08/27 08:07:29;;;;;;;5.60;5.00;;;;;;;24.05;83.57;96100.94;108597;1276;23681;-81
2023/08/27 08:09:58;;;;;;;6.20;5.10;;;;;;;24.06;83.96;96096.68;108544;1276;23466;-75
2023/08/27 08:12:26;;;;;;;8.60;5.80;;;;;;;24.19;84.84;96100.88;108441;1272;22555;-76
2023/08/27 08:14:55;;;;;;;5.60;4.80;;;;;;;24.39;84.75;96101.24;108540;1276;22521;-76
2023/08/27 08:17:24;;;;;;;6.00;5.00;;;;;;;24.60;84.80;96101.02;108567;1270;22526;-77
2023/08/27 08:19:54;;;;;;;6.50;5.40;;;;;;;24.78;83.97;96097.30;108455;1269;22542;-77
2023/08/27 08:22:23;;;;;;;5.30;4.80;;;;;;;24.77;83.52;96102.55;108539;1270;22575;-76
2023/08/27 08:24:51;;;;;;;7.10;5.20;;;;;;;24.80;83.20;96102.19;108436;1271;22536;-77
2023/08/27 08:27:21;;;;;;;6.30;5.00;;;;;;;24.89;82.99;96100.41;108389;1270;25371;-77
2023/08/27 08:29:50;;;;;;;5.40;4.50;;;;;;;24.82;82.03;96100.26;108395;1274;22539;-77
2023/08/27 08:32:18;;;;;;;5.80;5.20;;;;;;;24.68;81.85;96102.68;108430;1276;24570;-77
2023/08/27 08:34:47;;;;;;;5.80;5.20;;;;;;;24.57;81.70;96102.40;108451;1271;25265;-77
2023/08/27 08:37:16;;;;;;;7.50;4.80;;;;;;;24.48;81.88;96099.81;108406;1276;23678;-77
2023/08/27 08:39:44;;;;;;;6.80;5.10;;;;;;;24.41;81.59;96093.36;108418;1269;23063;-77
2023/08/27 08:42:20;;;;;;;7.00;5.20;;;;;;;24.29;81.62;96092.65;108441;1276;22604;-77
2023/08/27 08:44:55;;;;;;;6.80;4.90;;;;;;;24.06;81.42;96081.84;108439;1270;25407;-77
2023/08/27 08:47:26;;;;;;;6.50;4.70;;;;;;;23.76;81.55;96086.98;108389;1271;22533;-77
2023/08/27 08:49:56;;;;;;;6.00;4.50;;;;;;;23.36;81.48;96089.89;108453;1273;22524;-77
2023/08/27 08:52:30;;;;;;;6.50;4.90;;;;;;;23.13;81.99;96082.25;108458;1271;22560;-77
2023/08/27 08:55:01;;;;;;;5.40;4.90;;;;;;;23.05;83.51;96085.65;108472;1271;22523;-77
2023/08/27 08:57:33;;;;;;;6.30;4.70;;;;;;;23.14;84.08;96088.23;108392;1269;22541;-77
2023/08/27 09:00:07;;;;;;;5.70;5.20;;;;;;;23.15;83.98;96090.94;108419;1273;22535;-77
2023/08/27 09:02:38;;;;;;;5.80;5.20;;;;;;;23.20;84.49;96085.41;108445;1269;26460;-77
2023/08/27 09:05:11;;;;;;;6.20;5.60;;;;;;;23.24;84.29;96084.31;108423;1263;24303;-77
2023/08/27 09:07:41;;;;;;;7.10;5.30;;;;;;;23.16;83.63;96082.67;108521;1269;24353;-77
2023/08/27 09:10:11;;;;;;;;;;;;;;;23.14;83.93;96078.80;108427;1270;22520;-77
2023/08/27 09:12:41;;;;;;;6.10;5.10;;;;;;;23.22;84.49;96076.09;108437;1273;22647;-77
2023/08/27 09:15:10;;;;;;;6.40;5.30;;;;;;;23.24;83.93;96072.41;108435;1274;22651;-77
2023/08/27 09:17:39;;;;;;;5.90;5.40;;;;;;;23.23;84.14;96076.64;108390;1276;22535;-77
2023/08/27 09:20:11;;;;;;;5.50;5.00;;;;;;;23.19;83.88;96068.56;108380;1269;23266;-77
2023/08/27 09:22:42;;;;;;;6.80;5.30;;;;;;;23.09;84.04;96068.70;108500;1276;25394;-76
2023/08/27 09:25:11;;;;;;;6.90;5.60;;;;;;;23.14;84.54;96063.57;108429;1271;22576;-76
2023/08/27 09:27:41;;;;;;;6.00;5.40;;;;;;;23.18;84.52;96060.13;108472;1276;22575;-76
2023/08/27 09:30:12;;;;;;;6.90;5.80;;;;;;;23.19;84.36;96060.21;108424;1273;22523;-76
2023/08/27 09:32:45;;;;;;;6.20;5.60;;;;;;;23.10;84.05;96060.77;108488;1276;22527;-76
2023/08/27 09:35:13;;;;;;;6.20;5.50;;;;;;;23.21;85.04;96056.45;108433;1260;24245;-76
2023/08/27 09:37:43;;;;;;;6.40;5.80;;;;;;;23.42;85.24;96054.23;108411;1276;25304;-76
2023/08/27 09:40:16;;;;;;;7.50;5.90;;;;;;;23.57;84.62;96050.42;108417;1270;22604;-76
2023/08/27 09:42:47;;;;;;;6.00;5.50;;;;;;;23.55;83.89;96045.76;108435;1276;23427;-76
2023/08/27 09:45:19;;;;;;;6.80;6.00;;;;;;;23.48;83.84;96050.56;108427;1269;22649;-76
2023/08/27 09:47:48;;;;;;;6.20;5.60;;;;;;;23.53;84.14;96042.27;108418;1272;22527;-76
2023/08/27 09:50:18;;;;;;;6.70;5.80;;;;;;;23.73;85.41;96037.08;108493;1276;25863;-76
2023/08/27 09:52:46;;;;;;;6.10;5.40;;;;;;;23.93;85.66;96033.58;108439;1270;24274;-78
2023/08/27 09:55:16;;;;;;;7.40;6.00;;;;;;;23.99;84.78;96032.75;108509;1276;22531;-78
2023/08/27 09:57:50;;;;;;;7.00;6.00;;;;;;;23.88;83.87;96033.85;108497;1276;23584;-78
2023/08/27 10:00:21;;;;;;;6.20;5.70;;;;;;;23.79;83.88;96039.67;108425;1271;22567;-78
2023/08/27 10:02:50;;;;;;;5.90;5.30;;;;;;;23.73;84.38;96043.58;108477;1272;24199;-80
2023/08/27 10:05:18;;;;;;;;;;;;;;;23.72;84.38;96040.48;108539;1274;22505;-79
2023/08/27 10:07:57;;;;;;;6.60;6.00;;;;;;;23.71;84.63;96043.10;108440;1276;25406;-78
2023/08/27 10:10:26;;;;;;;7.20;6.50;;;;;;;23.75;85.23;96037.79;108439;1273;25402;-78
2023/08/27 10:12:56;;;;;;;7.10;6.40;;;;;;;23.83;85.55;96033.60;108497;1271;23697;-78
2023/08/27 10:15:26;;;;;;;7.20;6.30;;;;;;;23.86;85.42;96024.64;108421;1276;22627;-78
2023/08/27 10:17:56;;;;;;;6.80;6.10;;;;;;;23.82;85.08;96032.44;108451;1276;22528;-78
2023/08/27 10:20:25;;;;;;;7.20;6.50;;;;;;;23.77;84.56;96032.55;108458;1270;25406;-78
2023/08/27 10:22:54;;;;;;;6.80;6.10;;;;;;;23.76;85.29;96026.42;108439;1276;25310;-78
2023/08/27 10:25:23;;;;;;;7.30;6.40;;;;;;;23.89;86.08;96029.30;108450;1276;22529;-78
2023/08/27 10:27:52;;;;;;;6.90;6.20;;;;;;;24.05;85.82;96027.98;108479;1276;22602;-79
2023/08/27 10:30:22;;;;;;;6.90;6.30;;;;;;;24.01;85.06;96027.19;108393;1270;26973;-80
2023/08/27 10:32:50;;;;;;;;;;;;;;;24.05;85.39;96024.73;108467;1271;22530;-79
2023/08/27 10:35:20;;;;;;;7.20;6.50;;;;;;;24.04;84.71;96020.70;108415;1273;22627;-79
2023/08/27 10:37:54;;;;;;;7.50;6.70;;;;;;;24.02;85.43;96017.67;108508;1276;22527;-78
2023/08/27 10:40:25;;;;;;;7.20;6.50;;;;;;;24.20;86.60;96014.05;108451;1269;24400;-79
2023/08/27 10:43:08;;;;;;;8.30;6.30;;;;;;;24.36;85.94;96015.30;108445;1276;22524;-79
2023/08/27 10:45:38;;;;;;;7.50;6.60;;;;;;;24.45;86.29;96016.65;108448;1272;24250;-79
2023/08/27 10:48:10;;;;;;;6.90;6.20;;;;;;;24.55;86.03;96007.77;108410;1269;22616;-78
2023/08/27 10:50:49;;;;;;;7.20;6.10;;;;;;;24.48;84.64;96008.54;108419;1276;22595;-79
2023/08/27 10:53:20;;;;;;;7.10;6.40;;;;;;;24.40;85.05;96004.02;108491;1276;25367;-78
2023/08/27 10:55:51;;;;;;;8.30;6.80;;;;;;;24.45;85.37;96002.71;108487;1269;22536;-78
2023/08/27 10:58:21;;;;;;;7.50;6.70;;;;;;;24.47;85.03;96001.86;108428;1276;22642;-78
2023/08/27 11:01:09;;;;;;;8.10;7.10;;;;;;;24.47;84.82;96005.96;108434;1276;22543;-78
2023/08/27 11:04:00;;;;;;;7.20;6.60;;;;;;;24.39;84.40;95999.91;108445;1271;22563;-82
2023/08/27 11:06:41;;;;;;;8.40;7.30;;;;;;;24.37;85.37;95991.15;108451;1276;22530;-79
2023/08/27 11:09:15;;;;;;;7.50;6.80;;;;;;;24.52;86.14;95989.58;108446;1265;22547;-79
2023/08/27 11:11:46;;;;;;;7.90;7.00;;;;;;;24.62;85.96;95985.26;108363;1269;22577;-79
2023/08/27 11:14:16;;;;;;;8.50;7.70;;;;;;;24.67;85.40;95981.40;110367;1276;22258;-80
2023/08/27 11:16:53;;;;;;;8.10;7.20;;;;;;;24.65;85.09;95986.67;109281;1269;22565;-79
2023/08/27 11:19:30;;;;;;;8.20;7.40;;;;;;;24.48;84.08;95983.05;108524;1273;77025;-80
2023/08/27 11:22:10;;;;;;;8.30;7.30;;;;;;;24.36;84.34;95980.70;108537;1276;22553;-79
2023/08/27 11:24:43;;;;;;;9.50;6.60;;;;;;;24.39;85.69;95974.74;108472;1270;22534;-79
2023/08/27 11:27:12;;;;;;;8.60;7.50;;;;;;;24.60;86.82;95974.26;108531;1268;22523;-79
2023/08/27 11:29:42;;;;;;;8.90;7.50;;;;;;;24.80;87.07;95974.13;108429;1273;22578;-79
2023/08/27 11:32:12;;;;;;;10.50;8.20;;;;;;;24.93;86.92;95980.19;108557;1270;22534;-77
2023/08/27 11:34:43;;;;;;;8.40;7.60;;;;;;;25.05;86.47;95978.45;108543;1272;22590;-77
2023/08/27 11:37:12;;;;;;;8.30;7.40;;;;;;;24.98;85.28;95974.39;108529;1276;22524;-77
2023/08/27 11:39:41;;;;;;;8.80;7.90;;;;;;;24.89;85.55;95978.86;108530;1276;24882;-79
2023/08/27 11:42:11;;;;;;;8.90;7.40;;;;;;;24.91;85.32;95983.81;108646;1269;22533;-81